sensor_id;sensor_type;location;lat;lon;timestamp;temperature;humidity
19031;DHT22;9648;51.130;13.978;2023-05-13T00:01:37;8.60;99.90
19031;DHT22;9648;51.130;13.978;2023-05-13T00:04:06;8.60;99.90
19031;DHT22;9648;51.130;13.978;2023-05-13T00:06:33;8.60;99.90
19031;DHT22;9648;51.130;13.978;2023-05-13T00:09:00;8.60;99.90
19031;DHT22;9648;51.130;13.978;2023-05-13T00:11:29;8.60;99.90
19031;DHT22;9648;51.130;13.978;2023-05-13T00:13:55;8.50;99.90
19031;DHT22;9648;51.130;13.978;2023-05-13T00:16:23;8.50;99.90
19031;DHT22;9648;51.130;13.978;2023-05-13T00:18:52;8.50;99.90
19031;DHT22;9648;51.130;13.978;2023-05-13T00:21:19;8.50;99.90
19031;DHT22;9648;51.130;13.978;2023-05-13T00:23:46;8.50;99.90
19031;DHT22;9648;51.130;13.978;2023-05-13T00:26:13;8.50;99.90
19031;DHT22;9648;51.130;13.978;2023-05-13T00:28:41;8.50;99.90
19031;DHT22;9648;51.130;13.978;2023-05-13T00:31:08;8.50;99.90
19031;DHT22;9648;51.130;13.978;2023-05-13T00:33:35;8.50;99.90
19031;DHT22;9648;51.130;13.978;2023-05-13T00:36:03;8.50;99.90
19031;DHT22;9648;51.130;13.978;2023-05-13T00:38:30;8.50;99.90
19031;DHT22;9648;51.130;13.978;2023-05-13T00:40:57;8.50;99.90
19031;DHT22;9648;51.130;13.978;2023-05-13T00:43:24;8.50;99.90
19031;DHT22;9648;51.130;13.978;2023-05-13T00:45:52;8.50;99.90
19031;DHT22;9648;51.130;13.978;2023-05-13T00:48:19;8.50;99.90
19031;DHT22;9648;51.130;13.978;2023-05-13T00:50:47;8.50;99.90
19031;DHT22;9648;51.130;13.978;2023-05-13T00:53:15;8.40;99.90
19031;DHT22;9648;51.130;13.978;2023-05-13T00:55:43;8.40;99.90
19031;DHT22;9648;51.130;13.978;2023-05-13T00:58:10;8.40;99.90
19031;DHT22;9648;51.130;13.978;2023-05-13T01:00:42;8.40;99.90
19031;DHT22;9648;51.130;13.978;2023-05-13T01:03:17;8.30;99.90
19031;DHT22;9648;51.130;13.978;2023-05-13T01:05:49;8.30;99.90
19031;DHT22;9648;51.130;13.978;2023-05-13T01:08:23;8.30;99.90
19031;DHT22;9648;51.130;13.978;2023-05-13T01:10:55;8.30;99.90
19031;DHT22;9648;51.130;13.978;2023-05-13T01:13:26;8.30;99.90
19031;DHT22;9648;51.130;13.978;2023-05-13T01:15:59;8.30;99.90
19031;DHT22;9648;51.130;13.978;2023-05-13T01:18:32;8.20;99.90
19031;DHT22;9648;51.130;13.978;2023-05-13T01:21:00;8.20;99.90
19031;DHT22;9648;51.130;13.978;2023-05-13T01:23:29;8.20;99.90
19031;DHT22;9648;51.130;13.978;2023-05-13T01:25:56;8.10;99.90
19031;DHT22;9648;51.130;13.978;2023-05-13T01:28:23;8.10;99.90
19031;DHT22;9648;51.130;13.978;2023-05-13T01:30:50;8.00;99.90
19031;DHT22;9648;51.130;13.978;2023-05-13T01:33:17;8.00;99.90
19031;DHT22;9648;51.130;13.978;2023-05-13T01:35:45;7.90;99.90
19031;DHT22;9648;51.130;13.978;2023-05-13T01:38:13;7.80;99.90
19031;DHT22;9648;51.130;13.978;2023-05-13T01:40:42;7.80;99.90
19031;DHT22;9648;51.130;13.978;2023-05-13T01:43:09;7.70;99.90
19031;DHT22;9648;51.130;13.978;2023-05-13T01:45:36;7.70;99.90
19031;DHT22;9648;51.130;13.978;2023-05-13T01:48:03;7.60;99.90
19031;DHT22;9648;51.130;13.978;2023-05-13T01:50:30;7.60;99.90
19031;DHT22;9648;51.130;13.978;2023-05-13T01:52:57;7.60;99.90
19031;DHT22;9648;51.130;13.978;2023-05-13T01:55:23;7.60;99.90
19031;DHT22;9648;51.130;13.978;2023-05-13T01:57:52;7.50;99.90
19031;DHT22;9648;51.130;13.978;2023-05-13T02:00:19;7.50;99.90
19031;DHT22;9648;51.130;13.978;2023-05-13T02:02:46;7.40;99.90
19031;DHT22;9648;51.130;13.978;2023-05-13T02:05:13;7.40;99.90
19031;DHT22;9648;51.130;13.978;2023-05-13T02:07:39;7.40;99.90
19031;DHT22;9648;51.130;13.978;2023-05-13T02:10:07;7.40;99.90
19031;DHT22;9648;51.130;13.978;2023-05-13T02:12:34;7.30;99.90
19031;DHT22;9648;51.130;13.978;2023-05-13T02:15:03;7.30;99.90
19031;DHT22;9648;51.130;13.978;2023-05-13T02:17:30;7.30;99.90
19031;DHT22;9648;51.130;13.978;2023-05-13T02:19:57;7.20;99.90
19031;DHT22;9648;51.130;13.978;2023-05-13T02:22:24;7.20;99.90
19031;DHT22;9648;51.130;13.978;2023-05-13T02:24:51;7.20;99.90
19031;DHT22;9648;51.130;13.978;2023-05-13T02:27:18;7.20;99.90
19031;DHT22;9648;51.130;13.978;2023-05-13T02:29:45;7.10;99.90
19031;DHT22;9648;51.130;13.978;2023-05-13T02:32:13;7.10;99.90
19031;DHT22;9648;51.130;13.978;2023-05-13T02:34:40;7.00;99.90
19031;DHT22;9648;51.130;13.978;2023-05-13T02:39:49;6.90;99.90
19031;DHT22;9648;51.130;13.978;2023-05-13T02:42:39;6.90;99.90
19031;DHT22;9648;51.130;13.978;2023-05-13T02:45:10;6.80;99.90
19031;DHT22;9648;51.130;13.978;2023-05-13T02:47:40;6.80;99.90
19031;DHT22;9648;51.130;13.978;2023-05-13T02:50:09;6.80;99.90
19031;DHT22;9648;51.130;13.978;2023-05-13T02:52:40;6.80;99.90
19031;DHT22;9648;51.130;13.978;2023-05-13T02:55:13;6.80;99.90
19031;DHT22;9648;51.130;13.978;2023-05-13T02:57:48;6.70;99.90
19031;DHT22;9648;51.130;13.978;2023-05-13T03:00:18;6.70;99.90
19031;DHT22;9648;51.130;13.978;2023-05-13T03:02:53;6.70;99.90
19031;DHT22;9648;51.130;13.978;2023-05-13T03:05:39;6.70;99.90
19031;DHT22;9648;51.130;13.978;2023-05-13T03:08:09;6.70;99.90
19031;DHT22;9648;51.130;13.978;2023-05-13T03:10:44;6.60;99.90
19031;DHT22;9648;51.130;13.978;2023-05-13T03:13:12;6.60;99.90
19031;DHT22;9648;51.130;13.978;2023-05-13T03:15:39;6.70;99.90
19031;DHT22;9648;51.130;13.978;2023-05-13T03:18:17;6.70;99.90
19031;DHT22;9648;51.130;13.978;2023-05-13T03:20:45;6.70;99.90
19031;DHT22;9648;51.130;13.978;2023-05-13T03:23:14;6.70;99.90
19031;DHT22;9648;51.130;13.978;2023-05-13T03:25:45;6.70;99.90
19031;DHT22;9648;51.130;13.978;2023-05-13T03:28:22;6.70;99.90
19031;DHT22;9648;51.130;13.978;2023-05-13T03:30:51;6.70;99.90
19031;DHT22;9648;51.130;13.978;2023-05-13T03:35:02;6.70;99.90
19031;DHT22;9648;51.130;13.978;2023-05-13T03:36:43;6.70;99.90
19031;DHT22;9648;51.130;13.978;2023-05-13T03:39:27;6.70;99.90
19031;DHT22;9648;51.130;13.978;2023-05-13T03:42:02;6.70;99.90
19031;DHT22;9648;51.130;13.978;2023-05-13T03:44:36;6.80;99.90
19031;DHT22;9648;51.130;13.978;2023-05-13T03:47:13;6.80;99.90
19031;DHT22;9648;51.130;13.978;2023-05-13T03:49:42;6.80;99.90
19031;DHT22;9648;51.130;13.978;2023-05-13T03:52:12;6.80;99.90
19031;DHT22;9648;51.130;13.978;2023-05-13T03:54:41;6.80;99.90
19031;DHT22;9648;51.130;13.978;2023-05-13T03:58:51;6.80;99.90
19031;DHT22;9648;51.130;13.978;2023-05-13T04:00:18;6.80;99.90
19031;DHT22;9648;51.130;13.978;2023-05-13T04:03:37;6.90;99.90
19031;DHT22;9648;51.130;13.978;2023-05-13T04:13:11;7.00;99.90
19031;DHT22;9648;51.130;13.978;2023-05-13T04:16:21;7.10;99.90
19031;DHT22;9648;51.130;13.978;2023-05-13T04:19:18;7.10;99.90
19031;DHT22;9648;51.130;13.978;2023-05-13T04:21:52;7.20;99.90
19031;DHT22;9648;51.130;13.978;2023-05-13T04:24:29;7.20;99.90
19031;DHT22;9648;51.130;13.978;2023-05-13T04:27:03;7.30;99.90
19031;DHT22;9648;51.130;13.978;2023-05-13T04:29:42;7.30;99.90
19031;DHT22;9648;51.130;13.978;2023-05-13T04:32:54;7.40;99.90
19031;DHT22;9648;51.130;13.978;2023-05-13T04:35:38;7.40;99.90
19031;DHT22;9648;51.130;13.978;2023-05-13T04:38:36;7.60;99.90
19031;DHT22;9648;51.130;13.978;2023-05-13T04:41:24;7.60;99.90
19031;DHT22;9648;51.130;13.978;2023-05-13T04:44:20;7.70;99.90
19031;DHT22;9648;51.130;13.978;2023-05-13T04:47:14;7.90;99.90
19031;DHT22;9648;51.130;13.978;2023-05-13T04:49:55;7.90;99.90
19031;DHT22;9648;51.130;13.978;2023-05-13T04:52:45;8.00;99.90
19031;DHT22;9648;51.130;13.978;2023-05-13T04:55:48;8.10;99.90
19031;DHT22;9648;51.130;13.978;2023-05-13T04:58:28;8.20;99.90
19031;DHT22;9648;51.130;13.978;2023-05-13T05:01:35;8.30;99.90
19031;DHT22;9648;51.130;13.978;2023-05-13T05:04:14;8.50;99.90
19031;DHT22;9648;51.130;13.978;2023-05-13T05:07:02;8.60;99.90
19031;DHT22;9648;51.130;13.978;2023-05-13T05:09:53;8.80;99.90
19031;DHT22;9648;51.130;13.978;2023-05-13T05:12:31;8.90;99.90
19031;DHT22;9648;51.130;13.978;2023-05-13T05:16:58;9.10;99.90
19031;DHT22;9648;51.130;13.978;2023-05-13T05:22:17;9.20;99.90
19031;DHT22;9648;51.130;13.978;2023-05-13T05:32:16;9.60;99.90
19031;DHT22;9648;51.130;13.978;2023-05-13T05:35:14;9.80;99.90
19031;DHT22;9648;51.130;13.978;2023-05-13T05:37:53;9.90;99.90
19031;DHT22;9648;51.130;13.978;2023-05-13T05:40:21;10.10;99.90
19031;DHT22;9648;51.130;13.978;2023-05-13T05:42:51;10.20;99.90
19031;DHT22;9648;51.130;13.978;2023-05-13T05:45:22;10.30;99.90
19031;DHT22;9648;51.130;13.978;2023-05-13T05:48:14;10.50;99.90
19031;DHT22;9648;51.130;13.978;2023-05-13T05:50:58;10.70;99.90
19031;DHT22;9648;51.130;13.978;2023-05-13T05:53:29;10.80;99.90
19031;DHT22;9648;51.130;13.978;2023-05-13T05:56:10;11.00;99.90
19031;DHT22;9648;51.130;13.978;2023-05-13T05:58:43;11.10;99.90
19031;DHT22;9648;51.130;13.978;2023-05-13T06:01:26;11.30;99.90
19031;DHT22;9648;51.130;13.978;2023-05-13T06:03:54;11.40;99.90
19031;DHT22;9648;51.130;13.978;2023-05-13T06:06:21;11.50;99.90
19031;DHT22;9648;51.130;13.978;2023-05-13T06:08:50;11.60;99.90
19031;DHT22;9648;51.130;13.978;2023-05-13T06:11:17;11.70;99.90
19031;DHT22;9648;51.130;13.978;2023-05-13T06:13:44;11.80;99.90
19031;DHT22;9648;51.130;13.978;2023-05-13T06:16:11;12.00;99.90
19031;DHT22;9648;51.130;13.978;2023-05-13T06:18:38;12.10;99.90
19031;DHT22;9648;51.130;13.978;2023-05-13T06:21:05;12.20;99.90
19031;DHT22;9648;51.130;13.978;2023-05-13T06:23:32;12.30;99.90
19031;DHT22;9648;51.130;13.978;2023-05-13T06:26:01;12.30;99.90
19031;DHT22;9648;51.130;13.978;2023-05-13T06:28:28;12.40;99.90
19031;DHT22;9648;51.130;13.978;2023-05-13T06:30:55;12.50;99.90
19031;DHT22;9648;51.130;13.978;2023-05-13T06:33:22;12.60;99.90
19031;DHT22;9648;51.130;13.978;2023-05-13T06:35:49;12.80;99.90
19031;DHT22;9648;51.130;13.978;2023-05-13T06:38:16;12.90;99.90
19031;DHT22;9648;51.130;13.978;2023-05-13T06:40:43;12.90;99.90
19031;DHT22;9648;51.130;13.978;2023-05-13T06:43:12;13.00;99.90
19031;DHT22;9648;51.130;13.978;2023-05-13T06:45:40;13.10;99.90
19031;DHT22;9648;51.130;13.978;2023-05-13T06:48:10;13.20;99.90
19031;DHT22;9648;51.130;13.978;2023-05-13T06:50:37;13.30;99.90
19031;DHT22;9648;51.130;13.978;2023-05-13T06:53:04;13.30;99.90
19031;DHT22;9648;51.130;13.978;2023-05-13T06:55:31;13.40;99.90
19031;DHT22;9648;51.130;13.978;2023-05-13T06:58:00;13.40;99.90
19031;DHT22;9648;51.130;13.978;2023-05-13T07:00:29;13.50;99.90
19031;DHT22;9648;51.130;13.978;2023-05-13T07:02:56;13.60;99.90
19031;DHT22;9648;51.130;13.978;2023-05-13T07:05:31;13.70;99.90
19031;DHT22;9648;51.130;13.978;2023-05-13T07:08:00;13.80;99.90
19031;DHT22;9648;51.130;13.978;2023-05-13T07:10:33;13.80;99.90
19031;DHT22;9648;51.130;13.978;2023-05-13T07:13:01;13.90;99.90
19031;DHT22;9648;51.130;13.978;2023-05-13T07:15:29;14.00;99.90
19031;DHT22;9648;51.130;13.978;2023-05-13T07:17:56;14.10;99.90
19031;DHT22;9648;51.130;13.978;2023-05-13T07:20:24;14.20;99.90
19031;DHT22;9648;51.130;13.978;2023-05-13T07:22:51;14.30;99.90
19031;DHT22;9648;51.130;13.978;2023-05-13T07:25:20;14.30;99.90
19031;DHT22;9648;51.130;13.978;2023-05-13T07:27:53;14.40;99.90
19031;DHT22;9648;51.130;13.978;2023-05-13T07:30:41;14.50;99.90
19031;DHT22;9648;51.130;13.978;2023-05-13T07:33:19;14.60;99.90
19031;DHT22;9648;51.130;13.978;2023-05-13T07:35:51;14.70;99.90
19031;DHT22;9648;51.130;13.978;2023-05-13T07:38:18;14.80;99.90
19031;DHT22;9648;51.130;13.978;2023-05-13T07:40:52;14.90;99.90
19031;DHT22;9648;51.130;13.978;2023-05-13T07:43:19;15.00;99.90
19031;DHT22;9648;51.130;13.978;2023-05-13T07:45:53;15.00;99.90
19031;DHT22;9648;51.130;13.978;2023-05-13T07:48:20;15.10;99.90
19031;DHT22;9648;51.130;13.978;2023-05-13T07:50:49;15.20;99.90
19031;DHT22;9648;51.130;13.978;2023-05-13T07:53:16;15.20;99.90
19031;DHT22;9648;51.130;13.978;2023-05-13T07:55:43;15.30;99.90
19031;DHT22;9648;51.130;13.978;2023-05-13T07:58:12;15.30;99.90
19031;DHT22;9648;51.130;13.978;2023-05-13T08:00:39;15.30;99.90
19031;DHT22;9648;51.130;13.978;2023-05-13T08:03:08;15.30;99.90
19031;DHT22;9648;51.130;13.978;2023-05-13T08:05:38;15.30;99.90
19031;DHT22;9648;51.130;13.978;2023-05-13T08:08:05;15.30;99.90
19031;DHT22;9648;51.130;13.978;2023-05-13T08:10:31;15.30;99.90
19031;DHT22;9648;51.130;13.978;2023-05-13T08:12:58;15.40;99.90
19031;DHT22;9648;51.130;13.978;2023-05-13T08:15:26;15.40;99.90
19031;DHT22;9648;51.130;13.978;2023-05-13T08:17:53;15.40;99.90
19031;DHT22;9648;51.130;13.978;2023-05-13T08:20:21;15.50;99.90
19031;DHT22;9648;51.130;13.978;2023-05-13T08:22:54;15.60;99.90
19031;DHT22;9648;51.130;13.978;2023-05-13T08:25:21;15.80;99.90
19031;DHT22;9648;51.130;13.978;2023-05-13T08:27:48;15.80;99.90
19031;DHT22;9648;51.130;13.978;2023-05-13T08:30:17;15.90;99.90
19031;DHT22;9648;51.130;13.978;2023-05-13T08:32:44;16.00;99.90
19031;DHT22;9648;51.130;13.978;2023-05-13T08:35:11;15.90;99.90
19031;DHT22;9648;51.130;13.978;2023-05-13T08:37:39;15.90;99.90
19031;DHT22;9648;51.130;13.978;2023-05-13T08:40:11;16.00;99.90
19031;DHT22;9648;51.130;13.978;2023-05-13T08:42:38;16.20;99.90
19031;DHT22;9648;51.130;13.978;2023-05-13T08:45:07;16.10;99.60
19031;DHT22;9648;51.130;13.978;2023-05-13T08:47:40;16.10;99.90
19031;DHT22;9648;51.130;13.978;2023-05-13T08:50:11;16.20;99.90
19031;DHT22;9648;51.130;13.978;2023-05-13T08:52:39;16.30;99.90
19031;DHT22;9648;51.130;13.978;2023-05-13T08:55:06;16.50;99.90
19031;DHT22;9648;51.130;13.978;2023-05-13T08:57:34;16.50;99.90
19031;DHT22;9648;51.130;13.978;2023-05-13T09:00:01;16.60;99.90
19031;DHT22;9648;51.130;13.978;2023-05-13T09:02:29;16.50;99.50
19031;DHT22;9648;51.130;13.978;2023-05-13T09:04:59;16.40;99.90
19031;DHT22;9648;51.130;13.978;2023-05-13T09:07:29;16.30;99.90
19031;DHT22;9648;51.130;13.978;2023-05-13T09:09:57;16.30;99.90
19031;DHT22;9648;51.130;13.978;2023-05-13T09:12:46;16.40;99.90
19031;DHT22;9648;51.130;13.978;2023-05-13T09:15:14;16.70;99.90
19031;DHT22;9648;51.130;13.978;2023-05-13T09:17:43;16.90;99.90
19031;DHT22;9648;51.130;13.978;2023-05-13T09:20:11;17.10;99.50
19031;DHT22;9648;51.130;13.978;2023-05-13T09:22:45;17.10;96.50
19031;DHT22;9648;51.130;13.978;2023-05-13T09:25:14;17.20;98.30
19031;DHT22;9648;51.130;13.978;2023-05-13T09:27:42;17.10;98.60
19031;DHT22;9648;51.130;13.978;2023-05-13T09:30:10;17.10;98.10
19031;DHT22;9648;51.130;13.978;2023-05-13T09:32:37;17.30;99.90
19031;DHT22;9648;51.130;13.978;2023-05-13T09:35:11;17.50;97.00
19031;DHT22;9648;51.130;13.978;2023-05-13T09:37:44;17.80;96.60
19031;DHT22;9648;51.130;13.978;2023-05-13T09:40:14;18.10;96.90
19031;DHT22;9648;51.130;13.978;2023-05-13T09:42:45;18.50;99.00
19031;DHT22;9648;51.130;13.978;2023-05-13T09:45:15;18.60;98.10
19031;DHT22;9648;51.130;13.978;2023-05-13T09:47:43;18.70;95.20
19031;DHT22;9648;51.130;13.978;2023-05-13T09:50:11;18.60;96.20
19031;DHT22;9648;51.130;13.978;2023-05-13T09:52:38;18.40;92.30
19031;DHT22;9648;51.130;13.978;2023-05-13T09:55:08;18.20;92.20
19031;DHT22;9648;51.130;13.978;2023-05-13T09:57:38;17.90;90.10
19031;DHT22;9648;51.130;13.978;2023-05-13T10:00:06;17.90;91.90
19031;DHT22;9648;51.130;13.978;2023-05-13T10:02:34;17.90;93.20
19031;DHT22;9648;51.130;13.978;2023-05-13T10:05:01;18.00;92.40
19031;DHT22;9648;51.130;13.978;2023-05-13T10:07:31;18.10;92.70
19031;DHT22;9648;51.130;13.978;2023-05-13T10:10:00;18.30;94.30
19031;DHT22;9648;51.130;13.978;2023-05-13T10:12:30;18.30;93.40
19031;DHT22;9648;51.130;13.978;2023-05-13T10:15:00;18.30;94.70
19031;DHT22;9648;51.130;13.978;2023-05-13T10:17:31;18.40;96.20
19031;DHT22;9648;51.130;13.978;2023-05-13T10:19:58;18.80;97.40
19031;DHT22;9648;51.130;13.978;2023-05-13T10:22:27;18.90;95.70
19031;DHT22;9648;51.130;13.978;2023-05-13T10:24:58;19.10;95.50
19031;DHT22;9648;51.130;13.978;2023-05-13T10:27:27;19.20;95.80
19031;DHT22;9648;51.130;13.978;2023-05-13T10:29:55;19.30;95.90
19031;DHT22;9648;51.130;13.978;2023-05-13T10:32:24;19.60;94.80
19031;DHT22;9648;51.130;13.978;2023-05-13T10:35:05;19.70;92.60
19031;DHT22;9648;51.130;13.978;2023-05-13T10:37:52;19.80;91.40
19031;DHT22;9648;51.130;13.978;2023-05-13T10:40:57;19.70;86.60
19031;DHT22;9648;51.130;13.978;2023-05-13T10:43:26;19.90;90.90
19031;DHT22;9648;51.130;13.978;2023-05-13T10:45:56;20.00;88.70
19031;DHT22;9648;51.130;13.978;2023-05-13T10:48:25;20.00;90.20
19031;DHT22;9648;51.130;13.978;2023-05-13T10:50:54;20.00;91.00
19031;DHT22;9648;51.130;13.978;2023-05-13T10:53:27;20.00;89.90
19031;DHT22;9648;51.130;13.978;2023-05-13T10:55:55;19.90;90.60
19031;DHT22;9648;51.130;13.978;2023-05-13T10:58:27;19.80;90.30
19031;DHT22;9648;51.130;13.978;2023-05-13T11:01:14;19.70;90.70
19031;DHT22;9648;51.130;13.978;2023-05-13T11:03:49;19.60;90.50
19031;DHT22;9648;51.130;13.978;2023-05-13T11:06:21;19.30;90.10
19031;DHT22;9648;51.130;13.978;2023-05-13T11:08:50;18.90;93.00
19031;DHT22;9648;51.130;13.978;2023-05-13T11:14:08;18.30;96.80
19031;DHT22;9648;51.130;13.978;2023-05-13T11:16:47;17.80;97.30
19031;DHT22;9648;51.130;13.978;2023-05-13T11:19:20;17.20;98.20
19031;DHT22;9648;51.130;13.978;2023-05-13T11:21:50;16.90;99.90
19031;DHT22;9648;51.130;13.978;2023-05-13T11:24:19;16.50;99.90
19031;DHT22;9648;51.130;13.978;2023-05-13T11:26:47;16.30;99.90
19031;DHT22;9648;51.130;13.978;2023-05-13T11:29:26;16.10;99.90
19031;DHT22;9648;51.130;13.978;2023-05-13T11:31:53;15.90;99.90
19031;DHT22;9648;51.130;13.978;2023-05-13T11:34:23;15.90;99.90
19031;DHT22;9648;51.130;13.978;2023-05-13T11:36:55;15.90;99.90
19031;DHT22;9648;51.130;13.978;2023-05-13T11:39:25;15.90;99.90
19031;DHT22;9648;51.130;13.978;2023-05-13T11:41:55;16.00;99.90
19031;DHT22;9648;51.130;13.978;2023-05-13T11:44:28;16.20;99.90
19031;DHT22;9648;51.130;13.978;2023-05-13T11:46:57;16.30;99.90
19031;DHT22;9648;51.130;13.978;2023-05-13T11:49:33;16.50;99.90
19031;DHT22;9648;51.130;13.978;2023-05-13T11:52:00;16.70;99.90
19031;DHT22;9648;51.130;13.978;2023-05-13T11:54:27;17.00;99.90
19031;DHT22;9648;51.130;13.978;2023-05-13T11:56:54;17.30;99.90
19031;DHT22;9648;51.130;13.978;2023-05-13T11:59:21;17.60;99.90
19031;DHT22;9648;51.130;13.978;2023-05-13T12:01:57;17.80;99.90
19031;DHT22;9648;51.130;13.978;2023-05-13T12:04:27;18.00;99.90
19031;DHT22;9648;51.130;13.978;2023-05-13T12:06:55;18.00;99.90
19031;DHT22;9648;51.130;13.978;2023-05-13T12:09:25;18.10;99.90
19031;DHT22;9648;51.130;13.978;2023-05-13T12:11:55;18.00;99.90
19031;DHT22;9648;51.130;13.978;2023-05-13T12:14:23;18.00;99.90
19031;DHT22;9648;51.130;13.978;2023-05-13T12:16:51;17.90;99.90
19031;DHT22;9648;51.130;13.978;2023-05-13T12:19:18;17.80;99.90
19031;DHT22;9648;51.130;13.978;2023-05-13T12:21:45;17.70;99.90
19031;DHT22;9648;51.130;13.978;2023-05-13T12:24:20;17.50;99.90
19031;DHT22;9648;51.130;13.978;2023-05-13T12:26:47;17.40;99.90
19031;DHT22;9648;51.130;13.978;2023-05-13T12:29:17;17.40;99.90
19031;DHT22;9648;51.130;13.978;2023-05-13T12:32:02;17.30;99.90
19031;DHT22;9648;51.130;13.978;2023-05-13T12:34:30;17.30;99.90
19031;DHT22;9648;51.130;13.978;2023-05-13T12:37:08;17.30;99.90
19031;DHT22;9648;51.130;13.978;2023-05-13T12:39:37;17.40;99.90
19031;DHT22;9648;51.130;13.978;2023-05-13T12:42:04;17.40;99.90
19031;DHT22;9648;51.130;13.978;2023-05-13T12:44:31;17.50;99.90
19031;DHT22;9648;51.130;13.978;2023-05-13T12:46:58;17.50;99.90
19031;DHT22;9648;51.130;13.978;2023-05-13T12:49:26;17.60;99.90
19031;DHT22;9648;51.130;13.978;2023-05-13T12:51:55;17.70;99.90
19031;DHT22;9648;51.130;13.978;2023-05-13T12:54:22;17.70;99.90
19031;DHT22;9648;51.130;13.978;2023-05-13T12:56:51;17.80;99.90
19031;DHT22;9648;51.130;13.978;2023-05-13T12:59:17;17.80;99.90
19031;DHT22;9648;51.130;13.978;2023-05-13T13:01:47;18.00;99.90
19031;DHT22;9648;51.130;13.978;2023-05-13T13:04:14;18.20;99.90
19031;DHT22;9648;51.130;13.978;2023-05-13T13:06:43;18.40;99.90
19031;DHT22;9648;51.130;13.978;2023-05-13T13:09:10;18.60;99.90
19031;DHT22;9648;51.130;13.978;2023-05-13T13:11:36;18.70;99.90
19031;DHT22;9648;51.130;13.978;2023-05-13T13:14:05;18.90;99.90
19031;DHT22;9648;51.130;13.978;2023-05-13T13:16:32;18.90;98.00
19031;DHT22;9648;51.130;13.978;2023-05-13T13:18:59;19.00;97.50
19031;DHT22;9648;51.130;13.978;2023-05-13T13:21:26;18.90;94.60
19031;DHT22;9648;51.130;13.978;2023-05-13T13:23:53;18.80;97.00
19031;DHT22;9648;51.130;13.978;2023-05-13T13:26:20;18.70;95.00
19031;DHT22;9648;51.130;13.978;2023-05-13T13:28:47;18.60;95.20
19031;DHT22;9648;51.130;13.978;2023-05-13T13:31:15;18.60;96.90
19031;DHT22;9648;51.130;13.978;2023-05-13T13:33:42;18.50;96.60
19031;DHT22;9648;51.130;13.978;2023-05-13T13:36:09;18.50;95.90
19031;DHT22;9648;51.130;13.978;2023-05-13T13:38:35;18.40;96.30
19031;DHT22;9648;51.130;13.978;2023-05-13T13:41:02;18.40;96.00
19031;DHT22;9648;51.130;13.978;2023-05-13T13:43:29;18.40;96.90
19031;DHT22;9648;51.130;13.978;2023-05-13T13:45:56;18.30;97.00
19031;DHT22;9648;51.130;13.978;2023-05-13T13:48:24;18.20;98.00
19031;DHT22;9648;51.130;13.978;2023-05-13T13:50:54;18.10;97.30
19031;DHT22;9648;51.130;13.978;2023-05-13T13:53:25;18.00;96.40
19031;DHT22;9648;51.130;13.978;2023-05-13T13:55:52;17.90;98.90
19031;DHT22;9648;51.130;13.978;2023-05-13T13:58:22;17.90;97.40
19031;DHT22;9648;51.130;13.978;2023-05-13T14:00:51;17.80;97.80
19031;DHT22;9648;51.130;13.978;2023-05-13T14:03:18;17.90;99.00
19031;DHT22;9648;51.130;13.978;2023-05-13T14:05:47;17.90;99.80
19031;DHT22;9648;51.130;13.978;2023-05-13T14:08:14;17.80;98.20
19031;DHT22;9648;51.130;13.978;2023-05-13T14:10:44;17.80;97.90
19031;DHT22;9648;51.130;13.978;2023-05-13T14:13:11;17.80;96.30
19031;DHT22;9648;51.130;13.978;2023-05-13T14:15:37;17.80;98.90
19031;DHT22;9648;51.130;13.978;2023-05-13T14:18:04;17.80;98.80
19031;DHT22;9648;51.130;13.978;2023-05-13T14:20:32;17.70;97.20
19031;DHT22;9648;51.130;13.978;2023-05-13T14:23:01;17.60;96.90
19031;DHT22;9648;51.130;13.978;2023-05-13T14:25:28;17.60;96.60
19031;DHT22;9648;51.130;13.978;2023-05-13T14:27:58;17.50;96.30
19031;DHT22;9648;51.130;13.978;2023-05-13T14:30:28;17.30;99.60
19031;DHT22;9648;51.130;13.978;2023-05-13T14:32:55;17.00;99.90
19031;DHT22;9648;51.130;13.978;2023-05-13T14:35:21;16.70;99.90
19031;DHT22;9648;51.130;13.978;2023-05-13T14:37:48;16.50;99.90
19031;DHT22;9648;51.130;13.978;2023-05-13T14:40:16;16.40;99.90
19031;DHT22;9648;51.130;13.978;2023-05-13T14:42:43;16.30;99.90
19031;DHT22;9648;51.130;13.978;2023-05-13T14:45:10;16.30;99.90
19031;DHT22;9648;51.130;13.978;2023-05-13T14:47:37;16.40;99.90
19031;DHT22;9648;51.130;13.978;2023-05-13T14:50:04;16.50;99.90
19031;DHT22;9648;51.130;13.978;2023-05-13T14:52:31;16.60;99.90
19031;DHT22;9648;51.130;13.978;2023-05-13T14:54:58;16.70;99.90
19031;DHT22;9648;51.130;13.978;2023-05-13T14:57:30;16.70;99.90
19031;DHT22;9648;51.130;13.978;2023-05-13T15:00:00;16.70;99.90
19031;DHT22;9648;51.130;13.978;2023-05-13T15:02:27;16.80;99.90
19031;DHT22;9648;51.130;13.978;2023-05-13T15:04:53;17.00;99.90
19031;DHT22;9648;51.130;13.978;2023-05-13T15:07:21;17.00;99.90
19031;DHT22;9648;51.130;13.978;2023-05-13T15:09:49;17.10;99.90
19031;DHT22;9648;51.130;13.978;2023-05-13T15:12:16;17.10;99.90
19031;DHT22;9648;51.130;13.978;2023-05-13T15:15:03;17.10;99.90
19031;DHT22;9648;51.130;13.978;2023-05-13T15:17:49;17.00;99.90
19031;DHT22;9648;51.130;13.978;2023-05-13T15:20:16;16.90;99.90
19031;DHT22;9648;51.130;13.978;2023-05-13T15:22:43;16.80;99.90
19031;DHT22;9648;51.130;13.978;2023-05-13T15:25:10;16.60;99.90
19031;DHT22;9648;51.130;13.978;2023-05-13T15:27:37;16.60;99.90
19031;DHT22;9648;51.130;13.978;2023-05-13T15:30:06;16.50;99.90
19031;DHT22;9648;51.130;13.978;2023-05-13T15:32:33;16.40;99.90
19031;DHT22;9648;51.130;13.978;2023-05-13T15:35:00;16.30;99.90
19031;DHT22;9648;51.130;13.978;2023-05-13T15:37:27;16.30;99.90
19031;DHT22;9648;51.130;13.978;2023-05-13T15:39:54;16.20;99.90
19031;DHT22;9648;51.130;13.978;2023-05-13T15:42:21;16.10;99.90
19031;DHT22;9648;51.130;13.978;2023-05-13T15:44:48;16.10;99.90
19031;DHT22;9648;51.130;13.978;2023-05-13T15:47:16;16.20;99.90
19031;DHT22;9648;51.130;13.978;2023-05-13T15:49:43;16.00;99.90
19031;DHT22;9648;51.130;13.978;2023-05-13T15:52:10;16.00;99.90
19031;DHT22;9648;51.130;13.978;2023-05-13T15:54:37;16.10;99.90
19031;DHT22;9648;51.130;13.978;2023-05-13T15:57:04;16.10;99.90
19031;DHT22;9648;51.130;13.978;2023-05-13T15:59:31;16.10;99.90
19031;DHT22;9648;51.130;13.978;2023-05-13T16:01:58;16.10;99.90
19031;DHT22;9648;51.130;13.978;2023-05-13T16:04:26;16.10;99.90
19031;DHT22;9648;51.130;13.978;2023-05-13T16:06:53;16.10;99.90
19031;DHT22;9648;51.130;13.978;2023-05-13T16:09:19;16.10;99.90
19031;DHT22;9648;51.130;13.978;2023-05-13T16:11:46;16.00;99.90
19031;DHT22;9648;51.130;13.978;2023-05-13T16:14:13;15.90;99.90
19031;DHT22;9648;51.130;13.978;2023-05-13T16:16:41;15.90;99.90
19031;DHT22;9648;51.130;13.978;2023-05-13T16:19:07;15.90;99.90
19031;DHT22;9648;51.130;13.978;2023-05-13T16:21:39;15.90;99.90
19031;DHT22;9648;51.130;13.978;2023-05-13T16:24:07;15.80;99.90